createdAt,value
2022-10-20T00:01:50.624Z,11.50
2022-10-20T00:04:17.284Z,11.50
2022-10-20T00:06:43.914Z,11.50
2022-10-20T00:09:11.776Z,11.40
2022-10-20T00:11:38.780Z,11.40
2022-10-20T00:14:05.528Z,11.40
2022-10-20T00:16:34.997Z,11.40
2022-10-20T00:19:01.662Z,11.40
2022-10-20T00:21:28.704Z,11.30
2022-10-20T00:23:55.521Z,11.30
2022-10-20T00:26:26.592Z,11.30
2022-10-20T00:28:53.655Z,11.20
2022-10-20T00:31:20.870Z,11.20
2022-10-20T00:33:47.567Z,11.20
2022-10-20T00:36:15.396Z,11.10
2022-10-20T00:38:42.344Z,11.10
2022-10-20T00:41:10.842Z,11.10
2022-10-20T00:43:41.847Z,11.00
2022-10-20T00:46:08.692Z,11.00
2022-10-20T00:48:35.734Z,11.00
2022-10-20T00:51:02.454Z,11.00
2022-10-20T00:53:29.528Z,10.90
2022-10-20T00:55:58.013Z,10.90
2022-10-20T00:58:25.250Z,10.80
2022-10-20T01:00:53.576Z,10.80
2022-10-20T01:03:23.886Z,10.80
2022-10-20T01:05:50.535Z,10.70
2022-10-20T01:08:17.291Z,10.70
2022-10-20T01:10:56.264Z,10.80
2022-10-20T01:13:32.706Z,10.70
2022-10-20T01:16:03.920Z,10.70
2022-10-20T01:18:37.177Z,10.70
2022-10-20T01:21:05.065Z,10.60
2022-10-20T01:23:40.677Z,10.60
2022-10-20T01:26:13.502Z,10.50
2022-10-20T01:28:47.622Z,10.50
2022-10-20T01:31:20.764Z,10.50
2022-10-20T01:34:10.088Z,10.40
2022-10-20T01:36:44.284Z,10.40
2022-10-20T01:39:15.520Z,10.40
2022-10-20T01:41:46.213Z,10.40
2022-10-20T01:44:14.998Z,10.30
2022-10-20T01:46:43.066Z,10.30
2022-10-20T01:49:10.108Z,10.30
2022-10-20T01:51:36.903Z,10.30
2022-10-20T01:54:03.701Z,10.20
2022-10-20T01:56:37.033Z,10.20
2022-10-20T01:59:03.688Z,10.20
2022-10-20T02:01:30.334Z,10.20
2022-10-20T02:03:59.481Z,10.10
2022-10-20T02:06:35.241Z,10.20
2022-10-20T02:09:04.405Z,10.10
2022-10-20T02:11:43.267Z,10.10
2022-10-20T02:14:11.471Z,10.10
2022-10-20T02:16:40.961Z,10.10
2022-10-20T02:19:08.671Z,10.00
2022-10-20T02:21:36.001Z,10.00
2022-10-20T02:24:05.278Z,10.00
2022-10-20T02:26:32.776Z,10.00
2022-10-20T02:29:01.528Z,10.00
2022-10-20T02:31:28.234Z,10.00
2022-10-20T02:33:56.199Z,10.00
2022-10-20T02:36:26.691Z,10.00
2022-10-20T02:38:53.782Z,10.00
2022-10-20T02:41:20.435Z,9.90
2022-10-20T02:43:47.097Z,9.90
2022-10-20T02:46:13.735Z,9.90
2022-10-20T02:48:40.395Z,9.90
2022-10-20T02:51:07.068Z,9.90
2022-10-20T02:53:34.204Z,9.90
2022-10-20T02:56:01.150Z,9.80
2022-10-20T02:58:27.788Z,9.90
2022-10-20T03:00:54.460Z,9.90
2022-10-20T03:03:21.122Z,9.80
2022-10-20T03:05:47.845Z,9.80
2022-10-20T03:08:15.202Z,9.80
2022-10-20T03:10:42.797Z,9.80
2022-10-20T03:13:10.321Z,9.90
2022-10-20T03:15:37.540Z,9.80
2022-10-20T03:18:04.452Z,9.80
2022-10-20T03:20:31.107Z,9.80
2022-10-20T03:22:57.740Z,9.80
2022-10-20T03:25:24.553Z,9.80
2022-10-20T03:27:51.319Z,9.80
2022-10-20T03:30:18.178Z,9.80
2022-10-20T03:32:44.819Z,9.70
2022-10-20T03:35:11.452Z,9.80
2022-10-20T03:37:38.071Z,9.80
2022-10-20T03:40:04.952Z,9.70
2022-10-20T03:42:31.575Z,9.70
2022-10-20T03:44:58.250Z,9.70
2022-10-20T03:47:24.905Z,9.70
2022-10-20T03:49:51.581Z,9.70
2022-10-20T03:52:18.315Z,9.70
2022-10-20T03:54:44.969Z,9.70
2022-10-20T03:57:11.673Z,9.70
2022-10-20T03:59:38.346Z,9.70
2022-10-20T04:02:05.155Z,9.70
2022-10-20T04:04:31.864Z,9.70
2022-10-20T04:06:58.535Z,9.70
2022-10-20T04:09:25.220Z,9.70
2022-10-20T04:11:51.848Z,9.70
2022-10-20T04:14:18.531Z,9.70
2022-10-20T04:16:45.184Z,9.70
2022-10-20T04:19:11.868Z,9.60
2022-10-20T04:21:38.599Z,9.60
2022-10-20T04:24:07.206Z,9.50
2022-10-20T04:26:33.877Z,9.50
2022-10-20T04:29:00.502Z,9.50
2022-10-20T04:31:27.177Z,9.50
2022-10-20T04:33:53.844Z,9.40
2022-10-20T04:36:20.454Z,9.40
2022-10-20T04:38:47.080Z,9.40
2022-10-20T04:41:13.706Z,9.40
2022-10-20T04:43:40.349Z,9.40
2022-10-20T04:46:08.828Z,9.40
2022-10-20T04:48:36.291Z,9.30
2022-10-20T04:51:07.562Z,9.30
2022-10-20T04:53:34.761Z,9.30
2022-10-20T04:56:01.716Z,9.30
2022-10-20T04:58:28.428Z,9.30
2022-10-20T05:01:00.002Z,9.30
2022-10-20T05:03:26.801Z,9.30
2022-10-20T05:05:53.432Z,9.30
2022-10-20T05:08:20.050Z,9.30
2022-10-20T05:10:46.718Z,9.30
2022-10-20T05:13:13.314Z,9.30
2022-10-20T05:15:39.984Z,9.30
2022-10-20T05:18:06.606Z,9.30
2022-10-20T05:20:41.037Z,9.30
2022-10-20T05:23:12.654Z,9.30
2022-10-20T05:25:39.535Z,9.30
2022-10-20T05:28:06.618Z,9.30
2022-10-20T05:30:36.589Z,9.20
2022-10-20T05:33:03.696Z,9.10
2022-10-20T05:35:30.611Z,9.10
2022-10-20T05:37:57.273Z,9.10
2022-10-20T05:40:24.038Z,9.10
2022-10-20T05:42:50.720Z,9.10
2022-10-20T05:45:17.532Z,9.10
2022-10-20T05:47:44.176Z,9.10
2022-10-20T05:50:11.207Z,9.20
2022-10-20T05:52:38.278Z,9.20
2022-10-20T05:55:05.350Z,9.20
2022-10-20T05:57:31.986Z,9.30
2022-10-20T05:59:58.629Z,9.20
2022-10-20T06:02:25.274Z,9.10
2022-10-20T06:04:51.914Z,9.10
2022-10-20T06:07:18.623Z,9.10
2022-10-20T06:09:45.283Z,9.20
2022-10-20T06:12:11.966Z,9.30
2022-10-20T06:14:38.609Z,9.40
2022-10-20T06:17:05.245Z,9.40
2022-10-20T06:19:31.923Z,9.40
2022-10-20T06:22:03.797Z,9.40
2022-10-20T06:24:33.621Z,9.40
2022-10-20T06:27:00.280Z,9.40
2022-10-20T06:29:27.013Z,9.50
2022-10-20T06:31:54.884Z,9.60
2022-10-20T06:34:22.588Z,9.60
2022-10-20T06:36:49.794Z,9.60
2022-10-20T06:39:18.535Z,9.60
2022-10-20T06:41:50.673Z,9.60
2022-10-20T06:44:17.993Z,9.60
2022-10-20T06:46:44.888Z,9.50
2022-10-20T06:49:11.950Z,9.50
2022-10-20T06:51:38.747Z,9.50
2022-10-20T06:54:05.471Z,9.40
2022-10-20T06:56:33.447Z,9.40
2022-10-20T06:59:00.716Z,9.50
2022-10-20T07:01:28.781Z,9.50
2022-10-20T07:03:56.690Z,9.50
2022-10-20T07:06:24.812Z,9.60
2022-10-20T07:08:53.771Z,9.70
2022-10-20T07:11:21.574Z,9.80
2022-10-20T07:13:49.299Z,9.90
2022-10-20T07:16:17.879Z,10.00
2022-10-20T07:21:17.506Z,10.20
2022-10-20T07:23:44.843Z,10.40
2022-10-20T07:26:16.134Z,10.40
2022-10-20T07:28:44.013Z,10.50
2022-10-20T07:31:15.663Z,10.60
2022-10-20T07:33:42.607Z,10.70
2022-10-20T07:36:17.269Z,10.70
2022-10-20T07:38:44.239Z,10.70
2022-10-20T07:41:11.350Z,10.70
2022-10-20T07:43:38.775Z,10.80
2022-10-20T07:46:06.025Z,10.80
2022-10-20T07:48:33.591Z,10.90
2022-10-20T07:51:19.155Z,10.90
2022-10-20T07:53:45.992Z,11.00
2022-10-20T07:56:12.868Z,11.00
2022-10-20T07:58:39.590Z,11.10
2022-10-20T08:01:06.770Z,11.10
2022-10-20T08:03:33.462Z,11.20
2022-10-20T08:06:00.344Z,11.30
2022-10-20T08:08:27.114Z,11.30
2022-10-20T08:10:53.848Z,11.40
2022-10-20T08:13:20.571Z,11.50
2022-10-20T08:15:52.099Z,11.60
2022-10-20T08:18:21.176Z,11.60
2022-10-20T08:20:48.025Z,11.60
2022-10-20T08:23:15.536Z,11.60
2022-10-20T08:25:42.298Z,11.70
2022-10-20T08:28:09.014Z,11.80
2022-10-20T08:30:35.984Z,11.90
2022-10-20T08:33:02.997Z,12.00
2022-10-20T08:35:29.636Z,12.10
2022-10-20T08:37:56.352Z,12.20
2022-10-20T08:40:24.352Z,12.30
2022-10-20T08:42:51.226Z,12.40
2022-10-20T08:45:23.292Z,12.40
2022-10-20T08:47:52.109Z,12.50
2022-10-20T08:50:19.458Z,12.50
2022-10-20T08:52:47.314Z,12.60
2022-10-20T08:55:30.578Z,12.70
2022-10-20T08:58:05.039Z,12.70
2022-10-20T09:00:32.339Z,12.80
2022-10-20T09:03:16.834Z,12.90
2022-10-20T09:05:45.296Z,12.90
2022-10-20T09:08:11.949Z,13.10
2022-10-20T09:10:40.182Z,13.10
2022-10-20T09:13:11.500Z,13.10
2022-10-20T09:15:38.695Z,13.20
2022-10-20T09:18:09.362Z,13.20
2022-10-20T09:20:56.573Z,13.30
2022-10-20T09:23:41.823Z,13.30
2022-10-20T09:26:30.349Z,13.40
2022-10-20T09:29:14.789Z,13.50
2022-10-20T09:31:50.024Z,13.50
2022-10-20T09:34:20.846Z,13.50
2022-10-20T09:36:48.535Z,13.50
2022-10-20T09:39:20.467Z,13.60
2022-10-20T09:41:47.438Z,13.60
2022-10-20T09:44:23.662Z,13.70
2022-10-20T09:46:51.787Z,13.70
2022-10-20T09:49:38.137Z,13.70
2022-10-20T09:52:15.481Z,13.80
2022-10-20T09:54:46.059Z,13.90
2022-10-20T09:57:16.971Z,14.00
2022-10-20T09:59:48.251Z,14.00
2022-10-20T10:02:14.893Z,14.10
2022-10-20T10:04:42.920Z,14.10
2022-10-20T10:07:21.773Z,14.20
2022-10-20T10:10:11.422Z,14.20
2022-10-20T10:12:38.558Z,14.30
2022-10-20T10:15:06.867Z,14.40
2022-10-20T10:17:35.291Z,14.50
2022-10-20T10:20:05.291Z,14.50
2022-10-20T10:22:32.152Z,14.60
2022-10-20T10:24:59.959Z,14.60
2022-10-20T10:27:27.878Z,14.60
2022-10-20T10:29:55.302Z,14.60
2022-10-20T10:32:26.731Z,14.60
2022-10-20T10:34:56.847Z,14.60
2022-10-20T10:37:23.981Z,14.60
2022-10-20T10:39:50.724Z,14.80
2022-10-20T10:42:34.875Z,14.80
2022-10-20T10:45:13.951Z,14.90
2022-10-20T10:47:46.948Z,15.00
2022-10-20T10:50:31.141Z,15.00
2022-10-20T10:53:11.223Z,15.10
2022-10-20T10:55:49.242Z,15.10
2022-10-20T10:58:22.482Z,15.10
2022-10-20T11:01:03.336Z,15.00
2022-10-20T11:03:49.016Z,15.00
2022-10-20T11:06:33.193Z,15.00
2022-10-20T11:09:16.392Z,15.10
2022-10-20T11:11:53.674Z,15.30
2022-10-20T11:14:20.354Z,15.30
2022-10-20T11:16:47.006Z,15.40
2022-10-20T11:19:27.737Z,15.60
2022-10-20T11:21:57.383Z,15.70
2022-10-20T11:24:30.171Z,15.70
2022-10-20T11:27:01.280Z,15.80
2022-10-20T11:29:31.376Z,15.90
2022-10-20T11:32:16.832Z,15.80
2022-10-20T11:34:52.878Z,15.90
2022-10-20T11:37:36.113Z,16.00
2022-10-20T11:40:12.937Z,15.90
2022-10-20T11:42:50.350Z,15.90
2022-10-20T11:45:28.201Z,15.90
2022-10-20T11:48:13.591Z,15.90
2022-10-20T11:50:42.151Z,16.00
2022-10-20T11:53:09.684Z,16.00
2022-10-20T11:55:52.427Z,15.90
2022-10-20T11:58:25.131Z,15.90
2022-10-20T12:01:10.009Z,15.90
2022-10-20T12:04:01.886Z,15.90
2022-10-20T12:06:41.290Z,15.90
2022-10-20T12:09:20.232Z,15.90
2022-10-20T12:11:56.421Z,15.90
2022-10-20T12:14:26.269Z,16.00
2022-10-20T12:16:53.413Z,16.10
2022-10-20T12:19:27.463Z,16.00
2022-10-20T12:22:26.277Z,15.90
2022-10-20T12:24:52.900Z,15.90
2022-10-20T12:27:30.011Z,15.90
2022-10-20T12:30:01.795Z,15.80
2022-10-20T12:32:28.455Z,15.80
2022-10-20T12:34:55.101Z,15.90
2022-10-20T12:37:24.750Z,15.90
2022-10-20T12:39:52.796Z,15.90
2022-10-20T12:42:33.320Z,16.00
2022-10-20T12:45:19.862Z,16.00
2022-10-20T12:47:48.393Z,16.10
2022-10-20T12:50:23.784Z,16.20
2022-10-20T12:52:50.525Z,16.20
2022-10-20T12:55:19.319Z,16.20
2022-10-20T12:57:46.374Z,16.10
2022-10-20T13:00:19.144Z,16.10
2022-10-20T13:02:47.168Z,16.20
2022-10-20T13:05:13.863Z,16.20
2022-10-20T13:07:46.900Z,16.40
2022-10-20T13:10:32.347Z,16.50
2022-10-20T13:13:02.132Z,16.60
2022-10-20T13:15:36.481Z,16.70
2022-10-20T13:18:12.821Z,16.70
2022-10-20T13:20:39.457Z,16.70
2022-10-20T13:23:09.446Z,16.70
2022-10-20T13:25:40.762Z,16.60
2022-10-20T13:28:13.681Z,16.50
2022-10-20T13:30:52.609Z,16.40
2022-10-20T13:33:34.427Z,16.40
2022-10-20T13:36:14.386Z,16.30
2022-10-20T13:38:50.303Z,16.20
2022-10-20T13:41:24.203Z,16.20
2022-10-20T13:44:09.864Z,16.20
2022-10-20T13:46:50.904Z,16.20
2022-10-20T13:49:29.769Z,16.20
2022-10-20T13:51:59.146Z,16.30
2022-10-20T13:54:28.136Z,16.50
2022-10-20T13:56:54.972Z,16.70
2022-10-20T14:01:56.040Z,16.80
2022-10-20T14:04:27.529Z,17.00
2022-10-20T14:06:54.807Z,17.10
2022-10-20T14:09:23.128Z,17.10
2022-10-20T14:11:51.637Z,17.00
2022-10-20T14:14:20.170Z,16.90
2022-10-20T14:16:52.209Z,16.80
2022-10-20T14:19:21.986Z,16.70
2022-10-20T14:21:54.402Z,16.60
2022-10-20T14:24:41.896Z,16.50
2022-10-20T14:27:14.373Z,16.50
2022-10-20T14:29:41.173Z,16.50
2022-10-20T14:32:08.082Z,16.40
2022-10-20T14:34:35.739Z,16.30
2022-10-20T14:37:03.230Z,16.20
2022-10-20T14:39:32.669Z,16.10
2022-10-20T14:42:00.402Z,16.00
2022-10-20T14:44:31.390Z,16.00
2022-10-20T14:47:00.661Z,15.90
2022-10-20T14:49:29.221Z,15.90
2022-10-20T14:52:00.384Z,15.80
2022-10-20T14:54:31.344Z,15.80
2022-10-20T14:56:58.053Z,15.60
2022-10-20T14:59:27.023Z,15.60
2022-10-20T15:02:01.147Z,15.50
2022-10-20T15:04:30.974Z,15.50
2022-10-20T15:07:06.378Z,15.40
2022-10-20T15:09:43.727Z,15.40
2022-10-20T15:12:13.446Z,15.30
2022-10-20T15:14:40.573Z,15.20
2022-10-20T15:17:27.178Z,15.20
2022-10-20T15:19:53.791Z,15.20
2022-10-20T15:22:20.481Z,15.10
2022-10-20T15:24:48.928Z,15.10
2022-10-20T15:27:16.780Z,15.00
2022-10-20T15:29:48.858Z,15.00
2022-10-20T15:32:16.099Z,14.90
2022-10-20T15:34:42.758Z,14.90
2022-10-20T15:37:11.595Z,14.80
2022-10-20T15:39:38.300Z,14.80
2022-10-20T15:42:11.012Z,14.70
2022-10-20T15:44:38.250Z,14.70
2022-10-20T15:47:04.984Z,14.60
2022-10-20T15:49:31.758Z,14.60
2022-10-20T15:51:58.491Z,14.50
2022-10-20T15:54:25.305Z,14.40
2022-10-20T15:56:51.997Z,14.40
2022-10-20T15:59:18.660Z,14.30
2022-10-20T16:01:45.394Z,14.20
2022-10-20T16:04:23.666Z,14.20
2022-10-20T16:06:53.049Z,14.10
2022-10-20T16:09:20.470Z,14.00
2022-10-20T16:11:47.194Z,13.90
2022-10-20T16:14:15.528Z,13.90
2022-10-20T16:16:42.524Z,13.90
2022-10-20T16:19:09.202Z,13.80
2022-10-20T16:21:35.888Z,13.80
2022-10-20T16:24:02.757Z,13.70
2022-10-20T16:26:29.426Z,13.70
2022-10-20T16:28:56.139Z,13.60
2022-10-20T16:31:22.812Z,13.50
2022-10-20T16:33:49.615Z,13.40
2022-10-20T16:36:17.245Z,13.40
2022-10-20T16:38:44.017Z,13.30
2022-10-20T16:41:12.171Z,13.30
2022-10-20T16:43:39.784Z,13.20
2022-10-20T16:46:07.265Z,13.10
2022-10-20T16:48:36.990Z,13.10
2022-10-20T16:51:08.546Z,13.00
2022-10-20T16:53:35.331Z,12.90
2022-10-20T16:56:02.851Z,12.90
2022-10-20T16:58:29.822Z,12.80
2022-10-20T17:01:00.977Z,12.80
2022-10-20T17:03:28.108Z,12.80
2022-10-20T17:05:58.652Z,12.80
2022-10-20T17:08:26.107Z,12.70
2022-10-20T17:11:00.346Z,12.70
2022-10-20T17:13:27.457Z,12.70
2022-10-20T17:15:54.329Z,12.60
2022-10-20T17:18:21.116Z,12.50
2022-10-20T17:20:52.117Z,12.50
2022-10-20T17:23:18.774Z,12.50
2022-10-20T17:25:45.433Z,12.50
2022-10-20T17:28:12.075Z,12.40
2022-10-20T17:30:42.483Z,12.30
2022-10-20T17:33:09.682Z,12.20
2022-10-20T17:35:36.655Z,12.20
2022-10-20T17:38:04.741Z,12.10
2022-10-20T17:40:35.594Z,12.20
2022-10-20T17:43:02.192Z,12.20
2022-10-20T17:45:28.841Z,12.10
2022-10-20T17:47:55.635Z,12.10
2022-10-20T17:50:22.287Z,12.00
2022-10-20T17:52:48.893Z,12.00
2022-10-20T17:55:15.620Z,12.00
2022-10-20T17:57:42.298Z,12.00
2022-10-20T18:00:12.976Z,12.00
2022-10-20T18:02:48.023Z,11.90
2022-10-20T18:05:14.899Z,11.90
2022-10-20T18:07:41.954Z,11.90
2022-10-20T18:10:09.081Z,11.90
2022-10-20T18:12:36.001Z,11.80
2022-10-20T18:15:03.152Z,11.70
2022-10-20T18:17:29.904Z,11.70
2022-10-20T18:19:59.907Z,11.70
2022-10-20T18:22:27.392Z,11.70
2022-10-20T18:24:54.051Z,11.80
2022-10-20T18:27:20.716Z,11.80
2022-10-20T18:29:47.365Z,11.80
2022-10-20T18:32:14.075Z,11.70
2022-10-20T18:34:41.501Z,11.70
2022-10-20T18:37:08.144Z,11.70
2022-10-20T18:39:34.853Z,11.60
2022-10-20T18:42:02.169Z,11.60
2022-10-20T18:46:57.822Z,11.60
2022-10-20T18:49:25.090Z,11.50
2022-10-20T18:51:51.925Z,11.60
2022-10-20T18:54:18.985Z,11.60
2022-10-20T18:56:45.967Z,11.60
2022-10-20T18:59:16.176Z,11.60
2022-10-20T19:01:43.150Z,11.60
2022-10-20T19:04:10.548Z,11.60
2022-10-20T19:06:44.381Z,11.60
2022-10-20T19:09:15.763Z,11.60
2022-10-20T19:11:43.345Z,11.60
2022-10-20T19:14:10.349Z,11.60
2022-10-20T19:16:37.754Z,11.60
2022-10-20T19:19:05.055Z,11.60
2022-10-20T19:21:32.123Z,11.60
2022-10-20T19:24:00.638Z,11.60
2022-10-20T19:26:34.809Z,11.60
2022-10-20T19:29:03.454Z,11.50
2022-10-20T19:31:32.196Z,11.50
2022-10-20T19:34:00.661Z,11.50
2022-10-20T19:36:28.342Z,11.50
2022-10-20T19:38:56.045Z,11.40
2022-10-20T19:41:22.864Z,11.40
2022-10-20T19:43:49.754Z,11.40
2022-10-20T19:46:17.552Z,11.40
2022-10-20T19:48:44.450Z,11.40
2022-10-20T19:51:11.135Z,11.40
2022-10-20T19:53:38.328Z,11.40
2022-10-20T19:56:05.816Z,11.40
2022-10-20T19:58:33.994Z,11.40
2022-10-20T20:01:00.790Z,11.40
2022-10-20T20:03:27.611Z,11.40
2022-10-20T20:05:58.286Z,11.40
2022-10-20T20:08:25.023Z,11.30
2022-10-20T20:10:55.922Z,11.30
2022-10-20T20:13:22.730Z,11.40
2022-10-20T20:15:49.514Z,11.30
2022-10-20T20:18:17.229Z,11.40
2022-10-20T20:20:45.391Z,11.40
2022-10-20T20:23:12.319Z,11.40
2022-10-20T20:25:40.064Z,11.40
2022-10-20T20:28:06.998Z,11.40
2022-10-20T20:30:33.697Z,11.40
2022-10-20T20:33:00.873Z,11.40
2022-10-20T20:35:27.814Z,11.40
2022-10-20T20:37:54.619Z,11.40
2022-10-20T20:40:21.728Z,11.40
2022-10-20T20:42:48.725Z,11.40
2022-10-20T20:45:15.454Z,11.40
2022-10-20T20:47:43.234Z,11.50
2022-10-20T20:50:11.236Z,11.50
2022-10-20T20:52:38.020Z,11.50
2022-10-20T20:55:04.807Z,11.50
2022-10-20T20:57:31.492Z,11.50
2022-10-20T20:59:58.124Z,11.50
2022-10-20T21:02:24.809Z,11.50
2022-10-20T21:04:51.603Z,11.50
2022-10-20T21:07:18.501Z,11.40
2022-10-20T21:09:45.326Z,11.40
2022-10-20T21:14:44.515Z,11.40
2022-10-20T21:17:11.151Z,11.30
2022-10-20T21:19:38.094Z,11.40
2022-10-20T21:22:04.910Z,11.40
2022-10-20T21:24:31.568Z,11.40
2022-10-20T21:26:58.226Z,11.30
2022-10-20T21:29:24.943Z,11.30
2022-10-20T21:31:51.571Z,11.30
2022-10-20T21:34:18.287Z,11.30
2022-10-20T21:36:44.963Z,11.30
2022-10-20T21:39:12.859Z,11.20
2022-10-20T21:41:39.582Z,11.30
2022-10-20T21:44:06.734Z,11.20
2022-10-20T21:46:35.837Z,11.20
2022-10-20T21:49:03.699Z,11.20
2022-10-20T21:51:41.061Z,11.20
2022-10-20T21:54:10.422Z,11.20
2022-10-20T21:56:38.486Z,11.20
2022-10-20T21:59:05.780Z,11.20
2022-10-20T22:01:32.520Z,11.20
2022-10-20T22:03:59.439Z,11.10
2022-10-20T22:06:26.907Z,11.10
2022-10-20T22:08:55.872Z,11.10
2022-10-20T22:11:24.226Z,11.10
2022-10-20T22:13:50.973Z,11.10
2022-10-20T22:16:20.931Z,11.10
2022-10-20T22:18:47.667Z,11.10
2022-10-20T22:21:15.817Z,11.10
2022-10-20T22:23:42.964Z,11.10
2022-10-20T22:26:10.280Z,11.10
2022-10-20T22:28:37.255Z,11.10
2022-10-20T22:31:04.651Z,11.10
2022-10-20T22:33:31.291Z,11.10
2022-10-20T22:35:57.914Z,11.10
2022-10-20T22:38:24.581Z,11.10
2022-10-20T22:40:51.226Z,11.00
2022-10-20T22:43:17.879Z,11.10
2022-10-20T22:45:44.549Z,11.10
2022-10-20T22:48:11.161Z,11.10
2022-10-20T22:50:37.876Z,11.10
2022-10-20T22:53:04.974Z,11.10
2022-10-20T22:55:31.770Z,11.10
2022-10-20T23:00:26.588Z,11.10
2022-10-20T23:02:53.409Z,11.10
2022-10-20T23:05:20.226Z,11.00
2022-10-20T23:07:46.922Z,11.00
2022-10-20T23:10:13.661Z,11.00
2022-10-20T23:12:40.745Z,11.00
2022-10-20T23:15:08.187Z,11.00
2022-10-20T23:17:35.315Z,11.10
2022-10-20T23:20:02.172Z,11.00
2022-10-20T23:22:29.128Z,11.00
2022-10-20T23:24:55.825Z,11.00
2022-10-20T23:27:22.695Z,11.10
2022-10-20T23:29:49.369Z,11.00
2022-10-20T23:32:16.013Z,11.00
2022-10-20T23:34:42.824Z,11.10
2022-10-20T23:37:09.520Z,11.10
2022-10-20T23:39:36.301Z,11.10
2022-10-20T23:42:06.385Z,11.00
2022-10-20T23:44:34.234Z,11.10
2022-10-20T23:47:00.941Z,11.10
2022-10-20T23:49:27.596Z,11.00
2022-10-20T23:51:54.343Z,11.00
2022-10-20T23:54:21.124Z,11.00
2022-10-20T23:56:48.008Z,11.00
2022-10-20T23:59:14.801Z,11.00
